sensor_id;sensor_type;location;lat;lon;timestamp;pressure;altitude;pressure_sealevel;temperature;humidity
37778;BME280;23615;51.506;7.678;2024-01-15T00:02:02;98630.75;;;0.83;100.00
37778;BME280;23615;51.506;7.678;2024-01-15T00:04:28;98632.94;;;0.72;100.00
37778;BME280;23615;51.506;7.678;2024-01-15T00:06:53;98629.50;;;0.72;100.00
37778;BME280;23615;51.506;7.678;2024-01-15T00:09:18;98615.56;;;0.71;100.00
37778;BME280;23615;51.506;7.678;2024-01-15T00:11:44;98617.78;;;0.74;100.00
37778;BME280;23615;51.506;7.678;2024-01-15T00:14:09;98612.78;;;0.80;100.00
37778;BME280;23615;51.506;7.678;2024-01-15T00:16:34;98614.19;;;0.82;100.00
37778;BME280;23615;51.506;7.678;2024-01-15T00:19:00;98609.56;;;0.84;100.00
37778;BME280;23615;51.506;7.678;2024-01-15T00:21:25;98607.97;;;0.90;100.00
37778;BME280;23615;51.506;7.678;2024-01-15T00:23:50;98595.84;;;0.89;100.00
37778;BME280;23615;51.506;7.678;2024-01-15T00:26:16;98601.09;;;0.89;100.00
37778;BME280;23615;51.506;7.678;2024-01-15T00:28:41;98601.47;;;0.79;100.00
37778;BME280;23615;51.506;7.678;2024-01-15T00:31:06;98594.16;;;0.74;100.00
37778;BME280;23615;51.506;7.678;2024-01-15T00:33:32;98600.28;;;0.82;100.00
37778;BME280;23615;51.506;7.678;2024-01-15T00:35:57;98593.81;;;0.84;100.00
37778;BME280;23615;51.506;7.678;2024-01-15T00:38:22;98601.69;;;0.84;100.00
37778;BME280;23615;51.506;7.678;2024-01-15T00:40:48;98602.69;;;0.83;100.00
37778;BME280;23615;51.506;7.678;2024-01-15T00:43:13;98594.22;;;0.81;100.00
37778;BME280;23615;51.506;7.678;2024-01-15T00:45:39;98592.75;;;0.72;100.00
37778;BME280;23615;51.506;7.678;2024-01-15T00:48:04;98594.41;;;0.80;100.00
37778;BME280;23615;51.506;7.678;2024-01-15T00:50:30;98597.25;;;0.85;100.00
37778;BME280;23615;51.506;7.678;2024-01-15T00:52:55;98593.59;;;0.86;100.00
37778;BME280;23615;51.506;7.678;2024-01-15T00:55:20;98602.47;;;0.85;100.00
37778;BME280;23615;51.506;7.678;2024-01-15T00:57:45;98601.06;;;0.82;100.00
37778;BME280;23615;51.506;7.678;2024-01-15T01:00:11;98597.84;;;0.87;100.00
37778;BME280;23615;51.506;7.678;2024-01-15T01:02:37;98607.16;;;0.89;100.00
37778;BME280;23615;51.506;7.678;2024-01-15T01:05:02;98598.47;;;0.89;100.00
37778;BME280;23615;51.506;7.678;2024-01-15T01:07:28;98601.47;;;0.86;100.00
37778;BME280;23615;51.506;7.678;2024-01-15T01:09:53;98598.44;;;0.82;100.00
37778;BME280;23615;51.506;7.678;2024-01-15T01:12:19;98595.88;;;0.95;100.00
37778;BME280;23615;51.506;7.678;2024-01-15T01:14:44;98601.13;;;0.95;100.00
37778;BME280;23615;51.506;7.678;2024-01-15T01:17:09;98598.91;;;0.99;100.00
37778;BME280;23615;51.506;7.678;2024-01-15T01:19:34;98586.59;;;0.99;100.00
37778;BME280;23615;51.506;7.678;2024-01-15T01:22:00;98597.91;;;1.00;100.00
37778;BME280;23615;51.506;7.678;2024-01-15T01:24:25;98592.69;;;1.06;100.00
37778;BME280;23615;51.506;7.678;2024-01-15T01:26:50;98595.31;;;1.13;100.00
37778;BME280;23615;51.506;7.678;2024-01-15T01:29:15;98594.50;;;1.06;100.00
37778;BME280;23615;51.506;7.678;2024-01-15T01:31:44;98595.47;;;0.98;100.00
37778;BME280;23615;51.506;7.678;2024-01-15T01:34:10;98590.81;;;1.00;100.00
37778;BME280;23615;51.506;7.678;2024-01-15T01:36:36;98588.44;;;1.12;100.00
37778;BME280;23615;51.506;7.678;2024-01-15T01:39:01;98588.63;;;1.04;100.00
37778;BME280;23615;51.506;7.678;2024-01-15T01:41:26;98581.94;;;1.01;100.00
37778;BME280;23615;51.506;7.678;2024-01-15T01:43:52;98582.94;;;1.00;100.00
37778;BME280;23615;51.506;7.678;2024-01-15T01:46:17;98580.72;;;0.97;100.00
37778;BME280;23615;51.506;7.678;2024-01-15T01:48:43;98582.53;;;0.97;100.00
37778;BME280;23615;51.506;7.678;2024-01-15T01:51:09;98589.44;;;1.04;100.00
37778;BME280;23615;51.506;7.678;2024-01-15T01:53:35;98577.69;;;1.00;100.00
37778;BME280;23615;51.506;7.678;2024-01-15T01:56:03;98576.31;;;1.04;100.00
37778;BME280;23615;51.506;7.678;2024-01-15T01:58:30;98577.31;;;1.10;100.00
37778;BME280;23615;51.506;7.678;2024-01-15T02:00:57;98571.69;;;1.13;100.00
37778;BME280;23615;51.506;7.678;2024-01-15T02:03:24;98567.03;;;1.15;100.00
37778;BME280;23615;51.506;7.678;2024-01-15T02:05:49;98568.63;;;1.03;100.00
37778;BME280;23615;51.506;7.678;2024-01-15T02:08:15;98565.78;;;1.04;100.00
37778;BME280;23615;51.506;7.678;2024-01-15T02:10:40;98572.06;;;1.10;100.00
37778;BME280;23615;51.506;7.678;2024-01-15T02:13:05;98578.13;;;1.04;100.00
37778;BME280;23615;51.506;7.678;2024-01-15T02:15:30;98581.53;;;0.98;100.00
37778;BME280;23615;51.506;7.678;2024-01-15T02:18:06;98579.53;;;1.00;100.00
37778;BME280;23615;51.506;7.678;2024-01-15T02:20:33;98577.13;;;1.05;100.00
37778;BME280;23615;51.506;7.678;2024-01-15T02:23:12;98581.56;;;1.11;100.00
37778;BME280;23615;51.506;7.678;2024-01-15T02:25:40;98582.19;;;1.13;100.00
37778;BME280;23615;51.506;7.678;2024-01-15T02:28:06;98580.34;;;1.07;100.00
37778;BME280;23615;51.506;7.678;2024-01-15T02:30:36;98587.44;;;1.06;100.00
37778;BME280;23615;51.506;7.678;2024-01-15T02:33:02;98579.94;;;1.03;100.00
37778;BME280;23615;51.506;7.678;2024-01-15T02:35:28;98580.75;;;1.04;100.00
37778;BME280;23615;51.506;7.678;2024-01-15T02:37:53;98581.75;;;1.03;100.00
37778;BME280;23615;51.506;7.678;2024-01-15T02:40:18;98584.38;;;1.03;100.00
37778;BME280;23615;51.506;7.678;2024-01-15T02:42:43;98590.63;;;1.02;100.00
37778;BME280;23615;51.506;7.678;2024-01-15T02:45:09;98581.16;;;1.07;100.00
37778;BME280;23615;51.506;7.678;2024-01-15T02:47:34;98598.13;;;1.05;100.00
37778;BME280;23615;51.506;7.678;2024-01-15T02:49:59;98591.44;;;0.96;100.00
37778;BME280;23615;51.506;7.678;2024-01-15T02:52:25;98582.16;;;1.00;100.00
37778;BME280;23615;51.506;7.678;2024-01-15T02:54:50;98574.28;;;1.00;100.00
37778;BME280;23615;51.506;7.678;2024-01-15T02:57:15;98582.13;;;0.93;100.00
37778;BME280;23615;51.506;7.678;2024-01-15T02:59:40;98578.72;;;0.99;100.00
37778;BME280;23615;51.506;7.678;2024-01-15T03:02:06;98581.94;;;1.01;100.00
37778;BME280;23615;51.506;7.678;2024-01-15T03:04:31;98582.75;;;1.02;100.00
37778;BME280;23615;51.506;7.678;2024-01-15T03:06:56;98576.91;;;1.00;100.00
37778;BME280;23615;51.506;7.678;2024-01-15T03:09:21;98578.72;;;0.99;100.00
37778;BME280;23615;51.506;7.678;2024-01-15T03:11:47;98578.94;;;1.04;100.00
37778;BME280;23615;51.506;7.678;2024-01-15T03:14:13;98579.94;;;1.03;100.00
37778;BME280;23615;51.506;7.678;2024-01-15T03:16:38;98579.75;;;1.11;100.00
37778;BME280;23615;51.506;7.678;2024-01-15T03:19:04;98580.97;;;1.16;100.00
37778;BME280;23615;51.506;7.678;2024-01-15T03:21:29;98577.53;;;1.08;100.00
37778;BME280;23615;51.506;7.678;2024-01-15T03:23:54;98581.16;;;1.07;100.00
37778;BME280;23615;51.506;7.678;2024-01-15T03:26:20;98590.06;;;1.06;100.00
37778;BME280;23615;51.506;7.678;2024-01-15T03:28:45;98589.03;;;1.07;100.00
37778;BME280;23615;51.506;7.678;2024-01-15T03:31:10;98582.00;;;1.15;100.00
37778;BME280;23615;51.506;7.678;2024-01-15T03:33:35;98584.00;;;1.06;100.00
37778;BME280;23615;51.506;7.678;2024-01-15T03:36:01;98581.97;;;1.08;100.00
37778;BME280;23615;51.506;7.678;2024-01-15T03:38:28;98589.44;;;1.11;100.00
37778;BME280;23615;51.506;7.678;2024-01-15T03:40:53;98584.19;;;1.11;100.00
37778;BME280;23615;51.506;7.678;2024-01-15T03:43:19;98579.13;;;1.09;100.00
37778;BME280;23615;51.506;7.678;2024-01-15T03:45:44;98589.63;;;1.09;100.00
37778;BME280;23615;51.506;7.678;2024-01-15T03:48:09;98577.75;;;1.13;100.00
37778;BME280;23615;51.506;7.678;2024-01-15T03:50:34;98582.56;;;1.10;100.00
37778;BME280;23615;51.506;7.678;2024-01-15T03:53:00;98568.44;;;1.04;100.00
37778;BME280;23615;51.506;7.678;2024-01-15T03:55:25;98571.06;;;1.11;100.00
37778;BME280;23615;51.506;7.678;2024-01-15T03:57:50;98570.06;;;1.12;100.00
37778;BME280;23615;51.506;7.678;2024-01-15T04:00:16;98565.78;;;1.04;100.00
37778;BME280;23615;51.506;7.678;2024-01-15T04:02:43;98576.50;;;1.09;100.00
37778;BME280;23615;51.506;7.678;2024-01-15T04:05:08;98569.03;;;1.06;100.00
37778;BME280;23615;51.506;7.678;2024-01-15T04:07:33;98580.31;;;1.00;100.00
37778;BME280;23615;51.506;7.678;2024-01-15T04:09:58;98573.47;;;1.06;100.00
37778;BME280;23615;51.506;7.678;2024-01-15T04:12:24;98563.38;;;1.09;100.00
37778;BME280;23615;51.506;7.678;2024-01-15T04:14:50;98560.97;;;1.08;100.00
37778;BME280;23615;51.506;7.678;2024-01-15T04:17:15;98556.53;;;1.15;100.00
37778;BME280;23615;51.506;7.678;2024-01-15T04:19:43;98552.72;;;1.18;100.00
37778;BME280;23615;51.506;7.678;2024-01-15T04:22:09;98551.66;;;1.12;100.00
37778;BME280;23615;51.506;7.678;2024-01-15T04:24:34;98537.53;;;1.13;100.00
37778;BME280;23615;51.506;7.678;2024-01-15T04:26:59;98549.88;;;1.26;100.00
37778;BME280;23615;51.506;7.678;2024-01-15T04:29:25;98545.84;;;1.23;100.00
37778;BME280;23615;51.506;7.678;2024-01-15T04:31:51;98543.41;;;1.22;100.00
37778;BME280;23615;51.506;7.678;2024-01-15T04:34:16;98538.78;;;1.24;100.00
37778;BME280;23615;51.506;7.678;2024-01-15T04:36:42;98535.94;;;1.25;100.00
37778;BME280;23615;51.506;7.678;2024-01-15T04:39:07;98536.13;;;1.30;100.00
37778;BME280;23615;51.506;7.678;2024-01-15T04:41:33;98530.28;;;1.28;100.00
37778;BME280;23615;51.506;7.678;2024-01-15T04:43:58;98530.69;;;1.32;100.00
37778;BME280;23615;51.506;7.678;2024-01-15T04:46:25;98531.91;;;1.29;100.00
37778;BME280;23615;51.506;7.678;2024-01-15T04:48:50;98523.00;;;1.37;100.00
37778;BME280;23615;51.506;7.678;2024-01-15T04:51:16;98529.88;;;1.38;100.00
37778;BME280;23615;51.506;7.678;2024-01-15T04:53:41;98516.75;;;1.25;100.00
37778;BME280;23615;51.506;7.678;2024-01-15T04:56:06;98515.13;;;1.17;100.00
37778;BME280;23615;51.506;7.678;2024-01-15T04:58:31;98510.88;;;1.16;100.00
37778;BME280;23615;51.506;7.678;2024-01-15T05:00:57;98511.06;;;1.21;100.00
37778;BME280;23615;51.506;7.678;2024-01-15T05:03:22;98510.06;;;1.22;100.00
37778;BME280;23615;51.506;7.678;2024-01-15T05:05:47;98514.75;;;1.27;100.00
37778;BME280;23615;51.506;7.678;2024-01-15T05:08:13;98516.53;;;1.33;100.00
37778;BME280;23615;51.506;7.678;2024-01-15T05:10:38;98505.44;;;1.31;100.00
37778;BME280;23615;51.506;7.678;2024-01-15T05:13:03;98501.38;;;1.28;100.00
37778;BME280;23615;51.506;7.678;2024-01-15T05:15:28;98506.66;;;1.35;100.00
37778;BME280;23615;51.506;7.678;2024-01-15T05:17:54;98510.88;;;1.29;100.00
37778;BME280;23615;51.506;7.678;2024-01-15T05:20:20;98514.94;;;1.38;100.00
37778;BME280;23615;51.506;7.678;2024-01-15T05:22:45;98508.88;;;1.31;100.00
37778;BME280;23615;51.506;7.678;2024-01-15T05:25:10;98509.25;;;1.22;100.00
37778;BME280;23615;51.506;7.678;2024-01-15T05:27:35;98507.63;;;1.21;100.00
37778;BME280;23615;51.506;7.678;2024-01-15T05:30:01;98502.19;;;1.22;100.00
37778;BME280;23615;51.506;7.678;2024-01-15T05:32:26;98502.41;;;1.27;100.00
37778;BME280;23615;51.506;7.678;2024-01-15T05:34:51;98514.50;;;1.22;100.00
37778;BME280;23615;51.506;7.678;2024-01-15T05:37:16;98518.75;;;1.29;100.00
37778;BME280;23615;51.506;7.678;2024-01-15T05:39:42;98509.69;;;1.25;100.00
37778;BME280;23615;51.506;7.678;2024-01-15T05:42:07;98503.19;;;1.28;100.00
37778;BME280;23615;51.506;7.678;2024-01-15T05:44:32;98509.47;;;1.27;100.00
37778;BME280;23615;51.506;7.678;2024-01-15T05:46:57;98508.88;;;1.31;100.00
37778;BME280;23615;51.506;7.678;2024-01-15T05:49:23;98502.19;;;1.29;100.00
37778;BME280;23615;51.506;7.678;2024-01-15T05:51:48;98501.19;;;1.30;100.00
37778;BME280;23615;51.506;7.678;2024-01-15T05:54:13;98498.34;;;1.38;100.00
37778;BME280;23615;51.506;7.678;2024-01-15T05:56:39;98494.72;;;1.39;100.00
37778;BME280;23615;51.506;7.678;2024-01-15T05:59:04;98490.69;;;1.43;100.00
37778;BME280;23615;51.506;7.678;2024-01-15T06:01:29;98495.34;;;1.41;100.00
37778;BME280;23615;51.506;7.678;2024-01-15T06:03:55;98488.88;;;1.43;100.00
37778;BME280;23615;51.506;7.678;2024-01-15T06:06:20;98488.47;;;1.33;100.00
37778;BME280;23615;51.506;7.678;2024-01-15T06:08:45;98486.84;;;1.39;100.00
37778;BME280;23615;51.506;7.678;2024-01-15T06:11:10;98484.00;;;1.40;100.00
37778;BME280;23615;51.506;7.678;2024-01-15T06:13:35;98478.75;;;1.40;100.00
37778;BME280;23615;51.506;7.678;2024-01-15T06:16:01;98489.69;;;1.44;100.00
37778;BME280;23615;51.506;7.678;2024-01-15T06:18:26;98501.78;;;1.32;100.00
37778;BME280;23615;51.506;7.678;2024-01-15T06:20:52;98486.22;;;1.30;100.00
37778;BME280;23615;51.506;7.678;2024-01-15T06:23:17;98487.25;;;1.36;100.00
37778;BME280;23615;51.506;7.678;2024-01-15T06:25:42;98487.44;;;1.41;100.00
37778;BME280;23615;51.506;7.678;2024-01-15T06:28:07;98479.34;;;1.29;100.00
37778;BME280;23615;51.506;7.678;2024-01-15T06:30:33;98477.16;;;1.33;100.00
37778;BME280;23615;51.506;7.678;2024-01-15T06:32:58;98467.63;;;1.32;100.00
37778;BME280;23615;51.506;7.678;2024-01-15T06:35:23;98467.63;;;1.32;100.00
37778;BME280;23615;51.506;7.678;2024-01-15T06:37:48;98465.63;;;1.27;100.00
37778;BME280;23615;51.506;7.678;2024-01-15T06:40:14;98465.41;;;1.29;100.00
37778;BME280;23615;51.506;7.678;2024-01-15T06:42:39;98466.44;;;1.41;100.00
37778;BME280;23615;51.506;7.678;2024-01-15T06:45:05;98457.56;;;1.35;100.00
37778;BME280;23615;51.506;7.678;2024-01-15T06:47:30;98471.69;;;1.41;100.00
37778;BME280;23615;51.506;7.678;2024-01-15T06:49:57;98469.66;;;1.49;100.00
37778;BME280;23615;51.506;7.678;2024-01-15T06:52:23;98459.94;;;1.37;100.00
37778;BME280;23615;51.506;7.678;2024-01-15T06:54:49;98468.88;;;1.36;100.00
37778;BME280;23615;51.506;7.678;2024-01-15T06:57:14;98456.53;;;1.23;100.00
37778;BME280;23615;51.506;7.678;2024-01-15T06:59:39;98477.72;;;1.28;100.00
37778;BME280;23615;51.506;7.678;2024-01-15T07:02:05;98480.97;;;1.24;100.00
37778;BME280;23615;51.506;7.678;2024-01-15T07:04:30;98481.59;;;1.32;100.00
37778;BME280;23615;51.506;7.678;2024-01-15T07:06:55;98484.41;;;1.31;100.00
37778;BME280;23615;51.506;7.678;2024-01-15T07:09:21;98487.84;;;1.31;100.00
37778;BME280;23615;51.506;7.678;2024-01-15T07:11:46;98483.41;;;1.32;100.00
37778;BME280;23615;51.506;7.678;2024-01-15T07:14:12;98482.00;;;1.36;100.00
37778;BME280;23615;51.506;7.678;2024-01-15T07:16:37;98480.59;;;1.33;100.00
37778;BME280;23615;51.506;7.678;2024-01-15T07:19:02;98478.16;;;1.32;100.00
37778;BME280;23615;51.506;7.678;2024-01-15T07:21:27;98476.13;;;1.34;100.00
37778;BME280;23615;51.506;7.678;2024-01-15T07:23:53;98475.53;;;1.32;100.00
37778;BME280;23615;51.506;7.678;2024-01-15T07:26:18;98474.91;;;1.30;100.00
37778;BME280;23615;51.506;7.678;2024-01-15T07:28:43;98469.47;;;1.31;100.00
37778;BME280;23615;51.506;7.678;2024-01-15T07:31:08;98470.28;;;1.32;100.00
37778;BME280;23615;51.506;7.678;2024-01-15T07:33:34;98480.59;;;1.33;100.00
37778;BME280;23615;51.506;7.678;2024-01-15T07:35:59;98483.81;;;1.35;100.00
37778;BME280;23615;51.506;7.678;2024-01-15T07:38:24;98479.56;;;1.34;100.00
37778;BME280;23615;51.506;7.678;2024-01-15T07:40:49;98482.41;;;1.33;100.00
37778;BME280;23615;51.506;7.678;2024-01-15T07:43:15;98480.97;;;1.37;100.00
37778;BME280;23615;51.506;7.678;2024-01-15T07:45:40;98489.47;;;1.39;100.00
37778;BME280;23615;51.506;7.678;2024-01-15T07:48:06;98485.81;;;1.40;100.00
37778;BME280;23615;51.506;7.678;2024-01-15T07:50:31;98488.84;;;1.37;100.00
37778;BME280;23615;51.506;7.678;2024-01-15T07:52:56;98488.06;;;1.36;100.00
37778;BME280;23615;51.506;7.678;2024-01-15T07:55:22;98486.66;;;1.34;100.00
37778;BME280;23615;51.506;7.678;2024-01-15T07:57:47;98479.97;;;1.31;100.00
37778;BME280;23615;51.506;7.678;2024-01-15T08:00:13;98480.16;;;1.30;100.00
37778;BME280;23615;51.506;7.678;2024-01-15T08:02:38;98484.22;;;1.32;100.00
37778;BME280;23615;51.506;7.678;2024-01-15T08:05:04;98480.59;;;1.33;100.00
37778;BME280;23615;51.506;7.678;2024-01-15T08:07:29;98482.59;;;1.38;100.00
37778;BME280;23615;51.506;7.678;2024-01-15T08:09:54;98476.31;;;1.39;100.00
37778;BME280;23615;51.506;7.678;2024-01-15T08:12:20;98491.28;;;1.45;100.00
37778;BME280;23615;51.506;7.678;2024-01-15T08:14:45;98490.28;;;1.33;100.00
37778;BME280;23615;51.506;7.678;2024-01-15T08:17:10;98480.59;;;1.27;100.00
37778;BME280;23615;51.506;7.678;2024-01-15T08:19:36;98478.56;;;1.35;100.00
37778;BME280;23615;51.506;7.678;2024-01-15T08:22:01;98468.66;;;1.31;100.00
37778;BME280;23615;51.506;7.678;2024-01-15T08:24:27;98473.09;;;1.37;100.00
37778;BME280;23615;51.506;7.678;2024-01-15T08:26:52;98460.78;;;1.31;100.00
37778;BME280;23615;51.506;7.678;2024-01-15T08:29:17;98463.19;;;1.32;100.00
37778;BME280;23615;51.506;7.678;2024-01-15T08:31:44;98461.59;;;1.25;100.00
37778;BME280;23615;51.506;7.678;2024-01-15T08:34:09;98466.22;;;1.29;100.00
37778;BME280;23615;51.506;7.678;2024-01-15T08:36:34;98469.47;;;1.25;100.00
37778;BME280;23615;51.506;7.678;2024-01-15T08:39:01;98472.72;;;1.27;100.00
37778;BME280;23615;51.506;7.678;2024-01-15T08:41:26;98470.88;;;1.21;100.00
37778;BME280;23615;51.506;7.678;2024-01-15T08:43:52;98457.13;;;1.12;100.00
37778;BME280;23615;51.506;7.678;2024-01-15T08:46:18;98468.06;;;1.16;100.00
37778;BME280;23615;51.506;7.678;2024-01-15T08:48:43;98470.88;;;1.21;100.00
37778;BME280;23615;51.506;7.678;2024-01-15T08:51:08;98466.03;;;1.24;100.00
37778;BME280;23615;51.506;7.678;2024-01-15T08:53:33;98475.72;;;1.24;100.00
37778;BME280;23615;51.506;7.678;2024-01-15T08:55:59;98475.34;;;1.27;100.00
37778;BME280;23615;51.506;7.678;2024-01-15T08:58:24;98479.78;;;1.26;100.00
37778;BME280;23615;51.506;7.678;2024-01-15T09:00:51;98484.63;;;1.16;100.00
37778;BME280;23615;51.506;7.678;2024-01-15T09:03:16;98477.31;;;1.11;100.00
37778;BME280;23615;51.506;7.678;2024-01-15T09:05:41;98480.38;;;1.08;100.00
37778;BME280;23615;51.506;7.678;2024-01-15T09:08:07;98481.78;;;1.11;100.00
37778;BME280;23615;51.506;7.678;2024-01-15T09:10:32;98480.56;;;1.13;100.00
37778;BME280;23615;51.506;7.678;2024-01-15T09:12:58;98483.63;;;1.17;100.00
37778;BME280;23615;51.506;7.678;2024-01-15T09:15:23;98485.00;;;1.20;100.00
37778;BME280;23615;51.506;7.678;2024-01-15T09:17:49;98481.78;;;1.11;100.00
37778;BME280;23615;51.506;7.678;2024-01-15T09:20:14;98488.84;;;1.10;100.00
37778;BME280;23615;51.506;7.678;2024-01-15T09:22:40;98485.00;;;1.13;100.00
37778;BME280;23615;51.506;7.678;2024-01-15T09:25:07;98491.88;;;1.14;100.00
37778;BME280;23615;51.506;7.678;2024-01-15T09:27:33;98487.25;;;1.16;100.00
37778;BME280;23615;51.506;7.678;2024-01-15T09:29:59;98489.69;;;1.18;100.00
37778;BME280;23615;51.506;7.678;2024-01-15T09:32:24;98488.44;;;1.13;100.00
37778;BME280;23615;51.506;7.678;2024-01-15T09:34:49;98484.00;;;1.14;100.00
37778;BME280;23615;51.506;7.678;2024-01-15T09:37:15;98488.63;;;1.19;100.00
37778;BME280;23615;51.506;7.678;2024-01-15T09:39:41;98483.38;;;1.12;100.00
37778;BME280;23615;51.506;7.678;2024-01-15T09:42:06;98492.69;;;1.15;100.00
37778;BME280;23615;51.506;7.678;2024-01-15T09:44:32;98491.09;;;1.27;100.00
37778;BME280;23615;51.506;7.678;2024-01-15T09:46:57;98491.50;;;1.24;100.00
37778;BME280;23615;51.506;7.678;2024-01-15T09:49:23;98492.50;;;1.16;100.00
37778;BME280;23615;51.506;7.678;2024-01-15T09:51:48;98485.81;;;1.20;100.00
37778;BME280;23615;51.506;7.678;2024-01-15T09:54:15;98484.63;;;1.16;100.00
37778;BME280;23615;51.506;7.678;2024-01-15T09:56:45;98490.06;;;1.08;100.00
37778;BME280;23615;51.506;7.678;2024-01-15T09:59:22;98496.31;;;1.13;100.00
37778;BME280;23615;51.506;7.678;2024-01-15T10:01:48;98501.19;;;1.17;100.00
37778;BME280;23615;51.506;7.678;2024-01-15T10:04:15;98504.00;;;1.08;100.00
37778;BME280;23615;51.506;7.678;2024-01-15T10:06:44;98506.84;;;1.07;100.00
37778;BME280;23615;51.506;7.678;2024-01-15T10:09:12;98503.59;;;1.11;100.00
37778;BME280;23615;51.506;7.678;2024-01-15T10:11:39;98500.97;;;1.11;100.00
37778;BME280;23615;51.506;7.678;2024-01-15T10:14:06;98494.91;;;1.04;100.00
37778;BME280;23615;51.506;7.678;2024-01-15T10:16:31;98496.72;;;1.04;100.00
37778;BME280;23615;51.506;7.678;2024-01-15T10:18:56;98490.47;;;0.98;100.00
37778;BME280;23615;51.506;7.678;2024-01-15T10:21:22;98493.28;;;1.03;100.00
37778;BME280;23615;51.506;7.678;2024-01-15T10:23:47;98487.84;;;1.05;100.00
37778;BME280;23615;51.506;7.678;2024-01-15T10:26:12;98482.56;;;1.11;100.00
37778;BME280;23615;51.506;7.678;2024-01-15T10:28:37;98492.31;;;1.18;100.00
37778;BME280;23615;51.506;7.678;2024-01-15T10:31:03;98493.13;;;1.18;100.00
37778;BME280;23615;51.506;7.678;2024-01-15T10:33:29;98480.19;;;1.17;100.00
37778;BME280;23615;51.506;7.678;2024-01-15T10:35:56;98485.63;;;1.22;100.00
37778;BME280;23615;51.506;7.678;2024-01-15T10:38:23;98489.88;;;1.16;100.00
37778;BME280;23615;51.506;7.678;2024-01-15T10:40:55;98489.88;;;1.16;100.00
37778;BME280;23615;51.506;7.678;2024-01-15T10:43:21;98485.00;;;1.13;100.00
37778;BME280;23615;51.506;7.678;2024-01-15T10:45:51;98473.88;;;1.11;100.00
37778;BME280;23615;51.506;7.678;2024-01-15T10:48:18;98481.78;;;1.04;100.00
37778;BME280;23615;51.506;7.678;2024-01-15T10:50:45;98484.41;;;1.04;100.00
37778;BME280;23615;51.506;7.678;2024-01-15T10:53:12;98482.16;;;1.01;100.00
37778;BME280;23615;51.506;7.678;2024-01-15T10:55:38;98485.41;;;1.03;100.00
37778;BME280;23615;51.506;7.678;2024-01-15T10:58:05;98478.94;;;0.99;100.00
37778;BME280;23615;51.506;7.678;2024-01-15T11:00:34;98485.00;;;1.06;100.00
37778;BME280;23615;51.506;7.678;2024-01-15T11:03:01;98484.19;;;1.06;100.00
37778;BME280;23615;51.506;7.678;2024-01-15T11:05:27;98491.28;;;1.05;100.00
37778;BME280;23615;51.506;7.678;2024-01-15T11:07:55;98487.63;;;1.06;100.00
37778;BME280;23615;51.506;7.678;2024-01-15T11:10:46;98484.97;;;0.93;100.00
37778;BME280;23615;51.506;7.678;2024-01-15T11:13:19;98495.47;;;0.93;100.00
37778;BME280;23615;51.506;7.678;2024-01-15T11:15:58;98489.03;;;0.96;100.00
37778;BME280;23615;51.506;7.678;2024-01-15T11:18:35;98483.78;;;0.96;100.00
37778;BME280;23615;51.506;7.678;2024-01-15T11:23:46;98484.41;;;1.04;100.00
37778;BME280;23615;51.506;7.678;2024-01-15T11:26:34;98496.13;;;1.08;100.00
37778;BME280;23615;51.506;7.678;2024-01-15T11:29:07;98489.44;;;1.12;100.00
37778;BME280;23615;51.506;7.678;2024-01-15T11:34:04;98478.56;;;1.16;100.00
37778;BME280;23615;51.506;7.678;2024-01-15T11:41:52;98483.81;;;1.22;100.00
37778;BME280;23615;51.506;7.678;2024-01-15T11:44:17;98478.56;;;1.22;100.00
37778;BME280;23615;51.506;7.678;2024-01-15T11:46:54;98478.53;;;1.29;100.00
37778;BME280;23615;51.506;7.678;2024-01-15T11:52:16;98477.72;;;1.28;100.00
37778;BME280;23615;51.506;7.678;2024-01-15T11:54:48;98467.66;;;1.25;100.00
37778;BME280;23615;51.506;7.678;2024-01-15T11:57:22;98469.66;;;1.30;100.00
37778;BME280;23615;51.506;7.678;2024-01-15T11:59:50;98472.50;;;1.35;100.00
37778;BME280;23615;51.506;7.678;2024-01-15T12:02:16;98478.56;;;1.22;100.00
37778;BME280;23615;51.506;7.678;2024-01-15T12:04:41;98482.19;;;1.34;100.00
37778;BME280;23615;51.506;7.678;2024-01-15T12:07:06;98472.50;;;1.41;100.00
37778;BME280;23615;51.506;7.678;2024-01-15T12:09:32;98486.44;;;1.42;100.00
37778;BME280;23615;51.506;7.678;2024-01-15T12:12:05;98482.59;;;1.38;100.00
37778;BME280;23615;51.506;7.678;2024-01-15T12:14:33;98480.16;;;1.49;100.00
37778;BME280;23615;51.506;7.678;2024-01-15T12:17:00;98481.38;;;1.47;100.00
37778;BME280;23615;51.506;7.678;2024-01-15T12:19:25;98485.81;;;1.46;100.00
37778;BME280;23615;51.506;7.678;2024-01-15T12:21:51;98482.59;;;1.51;100.00
37778;BME280;23615;51.506;7.678;2024-01-15T12:24:20;98489.66;;;1.50;100.00
37778;BME280;23615;51.506;7.678;2024-01-15T12:26:45;98485.63;;;1.35;100.00
37778;BME280;23615;51.506;7.678;2024-01-15T12:29:11;98475.09;;;1.28;100.00
37778;BME280;23615;51.506;7.678;2024-01-15T12:31:36;98483.81;;;1.35;100.00
37778;BME280;23615;51.506;7.678;2024-01-15T12:34:02;98485.41;;;1.30;100.00
37778;BME280;23615;51.506;7.678;2024-01-15T12:36:30;98480.16;;;1.30;100.00
37778;BME280;23615;51.506;7.678;2024-01-15T12:38:59;98491.91;;;1.34;100.00
37778;BME280;23615;51.506;7.678;2024-01-15T12:41:24;98476.94;;;1.41;100.00
37778;BME280;23615;51.506;7.678;2024-01-15T12:43:50;98485.00;;;1.39;100.00
37778;BME280;23615;51.506;7.678;2024-01-15T12:46:16;98490.88;;;1.35;100.00
37778;BME280;23615;51.506;7.678;2024-01-15T12:48:41;98495.94;;;1.36;100.00
37778;BME280;23615;51.506;7.678;2024-01-15T12:51:08;98496.16;;;1.35;100.00
37778;BME280;23615;51.506;7.678;2024-01-15T12:53:33;98490.28;;;1.39;100.00
37778;BME280;23615;51.506;7.678;2024-01-15T12:55:58;98492.09;;;1.45;100.00
37778;BME280;23615;51.506;7.678;2024-01-15T12:58:24;98496.72;;;1.37;100.00
37778;BME280;23615;51.506;7.678;2024-01-15T13:00:49;98490.88;;;1.35;100.00
37778;BME280;23615;51.506;7.678;2024-01-15T13:03:14;98503.22;;;1.34;100.00
37778;BME280;23615;51.506;7.678;2024-01-15T13:05:40;98502.59;;;1.39;100.00
37778;BME280;23615;51.506;7.678;2024-01-15T13:08:06;98505.03;;;1.47;100.00